Gennaro Ievoli — 9HA3007 — position and weather

sailwx.info

Track history (hours):
 
Tides and Currents Weather Stations Pressure Air Temp Water Temp Dewpoint Dewpoint Depression Visibility Wind Speed Wind Dir Waves Ship Positions

Gennaro Ievoli

Last reported at 2015-Jun-14 00:24 UTC. Time now 2015-Jul-01 04:50 UTC.
Position N 01°53' E 102°24'.
Warning: this ship's position is 17 days out of date.

Length 171 m; draft 10 m.

Type: Ship (hazmat cat C). MMSI: 229031000.

Date/timePositionNaut miles runAvg speedWind from/ knotsBaromVisibWave heightAir tempDewpointWater temp
2015-Jun-14 00:24N 01°53' E 102°24'1213.1
2015-Jun-13 23:29N 01°48' E 102°35'1412.4
2015-Jun-13 22:22N 01°43' E 102°48'5513.8
2015-Jun-13 18:23N 01°12' E 103°34'10 8.9
2015-Jun-13 17:17N 01°15' E 103°43'2 0.2
2015-Jun-13 09:09N 01°16' E 103°44'0 0.0
2015-Jun-13 07:08N 01°16' E 103°44'0 0.0
2015-Jun-13 00:17N 01°16' E 103°44'0 0.0
2015-Jun-12 23:17N 01°16' E 103°44'0 0.0
2015-Jun-12 22:05N 01°16' E 103°44'0 0.0
2015-Jun-12 21:10N 01°16' E 103°44'0 0.0
2015-Jun-12 20:28N 01°16' E 103°44'0 0.0
2015-Jun-12 19:21N 01°16' E 103°44'0 0.0
2015-Jun-12 18:29N 01°16' E 103°44'0 0.1
2015-Jun-12 17:33N 01°16' E 103°44'5 0.8
2015-Jun-12 10:27N 01°15' E 103°39'4 4.1
2015-Jun-12 09:33N 01°17' E 103°42'0 0.4
2015-Jun-12 08:30N 01°17' E 103°42'0 0.0
2015-Jun-12 07:32N 01°17' E 103°42'0 0.0
2015-Jun-12 06:29N 01°17' E 103°42'0 0.0
2015-Jun-12 05:28N 01°17' E 103°42'0 0.0
2015-Jun-12 04:31N 01°17' E 103°42'0 0.0
2015-Jun-12 03:19N 01°17' E 103°42'0 0.0
2015-Jun-12 02:27N 01°17' E 103°42'0 0.0
2015-Jun-12 01:30N 01°17' E 103°42'0 0.0
2015-Jun-12 00:20N 01°17' E 103°42'0 0.0
2015-Jun-11 23:23N 01°17' E 103°42'0 0.0
2015-Jun-11 22:19N 01°17' E 103°42'0 0.0
2015-Jun-11 21:28N 01°17' E 103°42'0 0.0
2015-Jun-11 20:31N 01°17' E 103°42'1 1.2
2015-Jun-11 19:34N 01°18' E 103°41'0 0.0
2015-Jun-11 16:20N 01°18' E 103°41'0 0.0
2015-Jun-11 15:08N 01°18' E 103°41'0 0.0
2015-Jun-11 12:09N 01°18' E 103°41'0 0.0
2015-Jun-11 11:21N 01°18' E 103°41'0 0.0
2015-Jun-11 10:14N 01°18' E 103°41'0 0.0
2015-Jun-11 09:23N 01°18' E 103°41'0 0.0
2015-Jun-11 08:26N 01°18' E 103°41'0 0.0
2015-Jun-11 05:33N 01°18' E 103°41'0 0.0
2015-Jun-11 01:07N 01°18' E 103°41'0 0.0
2015-Jun-11 00:31N 01°18' E 103°41'0 0.0
2015-Jun-10 23:22N 01°18' E 103°41'0 0.0
2015-Jun-10 22:33N 01°18' E 103°41'0 0.0
2015-Jun-10 21:33N 01°18' E 103°41'0 0.1
2015-Jun-10 20:33N 01°18' E 103°41'0 0.1
2015-Jun-10 19:26N 01°18' E 103°41'0 0.1
2015-Jun-10 18:32N 01°18' E 103°41'0 0.0
2015-Jun-10 17:28N 01°18' E 103°41'0 0.0
2015-Jun-10 16:31N 01°18' E 103°41'0 0.0
2015-Jun-10 15:24N 01°18' E 103°41'0 0.0
2015-Jun-10 14:30N 01°18' E 103°41'0 0.0
2015-Jun-10 13:17N 01°18' E 103°41'0 0.0
2015-Jun-10 12:32N 01°18' E 103°41'0 0.0
2015-Jun-10 11:32N 01°18' E 103°41'0 0.0
2015-Jun-10 10:31N 01°18' E 103°41'0 0.0
2015-Jun-10 09:28N 01°18' E 103°41'0 0.0
2015-Jun-10 08:30N 01°18' E 103°41'0 0.0
2015-Jun-10 07:33N 01°18' E 103°41'0 0.0
2015-Jun-10 06:33N 01°18' E 103°41'0 0.0
2015-Jun-10 05:33N 01°18' E 103°41'0 0.0
2015-Jun-10 04:33N 01°18' E 103°41'0 0.0
2015-Jun-10 03:33N 01°18' E 103°41'0 0.0
2015-Jun-10 02:33N 01°18' E 103°41'0 0.0
2015-Jun-10 01:33N 01°18' E 103°41'0 0.0
2015-Jun-10 00:33N 01°18' E 103°41'0 0.0
2015-Jun-09 23:33N 01°18' E 103°41'0 0.0
2015-Jun-09 22:33N 01°18' E 103°41'0 0.0
2015-Jun-09 21:33N 01°18' E 103°41'0 0.0
2015-Jun-09 20:32N 01°18' E 103°41'0 0.0
2015-Jun-09 19:33N 01°18' E 103°41'0 0.0
2015-Jun-09 18:33N 01°18' E 103°41'0 0.0
2015-Jun-09 17:34N 01°18' E 103°41'0 0.1
2015-Jun-09 16:33N 01°18' E 103°41'0 0.1
2015-Jun-09 15:33N 01°18' E 103°41'0 0.0
2015-Jun-09 14:33N 01°18' E 103°41'0 0.0
2015-Jun-09 13:29N 01°18' E 103°41'0 0.0
2015-Jun-09 12:29N 01°18' E 103°41'0 0.0
2015-Jun-09 11:33N 01°18' E 103°41'0 0.0
2015-Jun-09 10:34N 01°18' E 103°41'0 0.0
2015-Jun-09 09:33N 01°18' E 103°41'0 0.0
2015-Jun-09 08:33N 01°18' E 103°41'0 0.0
2015-Jun-09 07:33N 01°18' E 103°41'0 0.0
2015-Jun-09 06:30N 01°18' E 103°41'0 0.0
2015-Jun-09 05:33N 01°18' E 103°41'0 0.0
2015-Jun-09 04:32N 01°18' E 103°41'0 0.0
2015-Jun-09 03:33N 01°18' E 103°41'0 0.0
2015-Jun-09 02:15N 01°18' E 103°41'0 0.0
2015-Jun-09 01:31N 01°18' E 103°41'0 0.0
2015-Jun-09 00:33N 01°18' E 103°41'0 0.0
2015-Jun-08 23:32N 01°18' E 103°41'0 0.0
2015-Jun-08 22:33N 01°18' E 103°41'0 0.0
2015-Jun-08 21:32N 01°18' E 103°41'0 0.0
2015-Jun-08 20:32N 01°18' E 103°41'4 3.7
2015-Jun-08 19:30N 01°14' E 103°40'2 2.1
2015-Jun-08 18:33N 01°16' E 103°41'0 0.0
2015-Jun-08 17:33N 01°16' E 103°41'0 0.0
2015-Jun-08 16:31N 01°16' E 103°41'0 0.0
2015-Jun-08 15:32N 01°16' E 103°41'0 0.0
2015-Jun-08 14:33N 01°16' E 103°41'0 0.0
2015-Jun-08 13:33N 01°16' E 103°41'0 0.0
2015-Jun-08 12:33N 01°16' E 103°41'0 0.0
2015-Jun-08 11:27N 01°16' E 103°41'0 0.0
2015-Jun-08 10:30N 01°16' E 103°41'0 0.0
2015-Jun-08 09:30N 01°16' E 103°41'0 0.0
2015-Jun-08 08:33N 01°16' E 103°41'0 0.0
2015-Jun-08 07:21N 01°16' E 103°41'2 0.4
2015-Jun-08 01:29N 01°14' E 103°39'0 0.0
2015-Jun-08 00:26N 01°14' E 103°39'0 0.0
2015-Jun-07 20:12N 01°14' E 103°39'0 0.1
2015-Jun-07 19:24N 01°14' E 103°39'0 0.0
2015-Jun-07 10:08N 01°14' E 103°39'0 0.0
2015-Jun-07 09:25N 01°14' E 103°39'0 0.0
2015-Jun-07 04:32N 01°14' E 103°39'0 0.0
2015-Jun-07 03:26N 01°14' E 103°39'0 0.1
2015-Jun-07 01:25N 01°14' E 103°40'8 7.1
2015-Jun-07 00:18N 01°10' E 103°46'912.4
2015-Jun-06 23:33N 01°14' E 103°55'1312.7
2015-Jun-06 22:33N 01°16' E 104°07'  
Track history (hours):
 
Tides and Currents Weather Stations Pressure Air Temp Water Temp Dewpoint Dewpoint Depression Visibility Wind Speed Wind Dir Waves Ship Positions

Gennaro Ievoli

Last reported at 2015-Jun-14 00:24 UTC. Time now 2015-Jul-01 04:50 UTC.
Position N 01°53' E 102°24'.
Warning: this ship's position is 17 days out of date.

Length 171 m; draft 10 m.

Type: Ship (hazmat cat C). MMSI: 229031000.

Date/timePositionNaut miles runAvg speedWind from/ knotsBaromVisibWave heightAir tempDewpointWater temp
2015-Jun-14 00:24N 01°53' E 102°24'1213.1
2015-Jun-13 23:29N 01°48' E 102°35'1412.4
2015-Jun-13 22:22N 01°43' E 102°48'5513.8
2015-Jun-13 18:23N 01°12' E 103°34'10 8.9
2015-Jun-13 17:17N 01°15' E 103°43'2 0.2
2015-Jun-13 09:09N 01°16' E 103°44'0 0.0
2015-Jun-13 07:08N 01°16' E 103°44'0 0.0
2015-Jun-13 00:17N 01°16' E 103°44'0 0.0
2015-Jun-12 23:17N 01°16' E 103°44'0 0.0
2015-Jun-12 22:05N 01°16' E 103°44'0 0.0
2015-Jun-12 21:10N 01°16' E 103°44'0 0.0
2015-Jun-12 20:28N 01°16' E 103°44'0 0.0
2015-Jun-12 19:21N 01°16' E 103°44'0 0.0
2015-Jun-12 18:29N 01°16' E 103°44'0 0.1
2015-Jun-12 17:33N 01°16' E 103°44'5 0.8
2015-Jun-12 10:27N 01°15' E 103°39'4 4.1
2015-Jun-12 09:33N 01°17' E 103°42'0 0.4
2015-Jun-12 08:30N 01°17' E 103°42'0 0.0
2015-Jun-12 07:32N 01°17' E 103°42'0 0.0
2015-Jun-12 06:29N 01°17' E 103°42'0 0.0
2015-Jun-12 05:28N 01°17' E 103°42'0 0.0
2015-Jun-12 04:31N 01°17' E 103°42'0 0.0
2015-Jun-12 03:19N 01°17' E 103°42'0 0.0
2015-Jun-12 02:27N 01°17' E 103°42'0 0.0
2015-Jun-12 01:30N 01°17' E 103°42'0 0.0
2015-Jun-12 00:20N 01°17' E 103°42'0 0.0
2015-Jun-11 23:23N 01°17' E 103°42'0 0.0
2015-Jun-11 22:19N 01°17' E 103°42'0 0.0
2015-Jun-11 21:28N 01°17' E 103°42'0 0.0
2015-Jun-11 20:31N 01°17' E 103°42'1 1.2
2015-Jun-11 19:34N 01°18' E 103°41'0 0.0
2015-Jun-11 16:20N 01°18' E 103°41'0 0.0
2015-Jun-11 15:08N 01°18' E 103°41'0 0.0
2015-Jun-11 12:09N 01°18' E 103°41'0 0.0
2015-Jun-11 11:21N 01°18' E 103°41'0 0.0
2015-Jun-11 10:14N 01°18' E 103°41'0 0.0
2015-Jun-11 09:23N 01°18' E 103°41'0 0.0
2015-Jun-11 08:26N 01°18' E 103°41'0 0.0
2015-Jun-11 05:33N 01°18' E 103°41'0 0.0
2015-Jun-11 01:07N 01°18' E 103°41'0 0.0
2015-Jun-11 00:31N 01°18' E 103°41'0 0.0
2015-Jun-10 23:22N 01°18' E 103°41'0 0.0
2015-Jun-10 22:33N 01°18' E 103°41'0 0.0
2015-Jun-10 21:33N 01°18' E 103°41'0 0.1
2015-Jun-10 20:33N 01°18' E 103°41'0 0.1
2015-Jun-10 19:26N 01°18' E 103°41'0 0.1
2015-Jun-10 18:32N 01°18' E 103°41'0 0.0
2015-Jun-10 17:28N 01°18' E 103°41'0 0.0
2015-Jun-10 16:31N 01°18' E 103°41'0 0.0
2015-Jun-10 15:24N 01°18' E 103°41'0 0.0
2015-Jun-10 14:30N 01°18' E 103°41'0 0.0
2015-Jun-10 13:17N 01°18' E 103°41'0 0.0
2015-Jun-10 12:32N 01°18' E 103°41'0 0.0
2015-Jun-10 11:32N 01°18' E 103°41'0 0.0
2015-Jun-10 10:31N 01°18' E 103°41'0 0.0
2015-Jun-10 09:28N 01°18' E 103°41'0 0.0
2015-Jun-10 08:30N 01°18' E 103°41'0 0.0
2015-Jun-10 07:33N 01°18' E 103°41'0 0.0
2015-Jun-10 06:33N 01°18' E 103°41'0 0.0
2015-Jun-10 05:33N 01°18' E 103°41'0 0.0
2015-Jun-10 04:33N 01°18' E 103°41'0 0.0
2015-Jun-10 03:33N 01°18' E 103°41'0 0.0
2015-Jun-10 02:33N 01°18' E 103°41'0 0.0
2015-Jun-10 01:33N 01°18' E 103°41'0 0.0
2015-Jun-10 00:33N 01°18' E 103°41'0 0.0
2015-Jun-09 23:33N 01°18' E 103°41'0 0.0
2015-Jun-09 22:33N 01°18' E 103°41'0 0.0
2015-Jun-09 21:33N 01°18' E 103°41'0 0.0
2015-Jun-09 20:32N 01°18' E 103°41'0 0.0
2015-Jun-09 19:33N 01°18' E 103°41'0 0.0
2015-Jun-09 18:33N 01°18' E 103°41'0 0.0
2015-Jun-09 17:34N 01°18' E 103°41'0 0.1
2015-Jun-09 16:33N 01°18' E 103°41'0 0.1
2015-Jun-09 15:33N 01°18' E 103°41'0 0.0
2015-Jun-09 14:33N 01°18' E 103°41'0 0.0
2015-Jun-09 13:29N 01°18' E 103°41'0 0.0
2015-Jun-09 12:29N 01°18' E 103°41'0 0.0
2015-Jun-09 11:33N 01°18' E 103°41'0 0.0
2015-Jun-09 10:34N 01°18' E 103°41'0 0.0
2015-Jun-09 09:33N 01°18' E 103°41'0 0.0
2015-Jun-09 08:33N 01°18' E 103°41'0 0.0
2015-Jun-09 07:33N 01°18' E 103°41'0 0.0
2015-Jun-09 06:30N 01°18' E 103°41'0 0.0
2015-Jun-09 05:33N 01°18' E 103°41'0 0.0
2015-Jun-09 04:32N 01°18' E 103°41'0 0.0
2015-Jun-09 03:33N 01°18' E 103°41'0 0.0
2015-Jun-09 02:15N 01°18' E 103°41'0 0.0
2015-Jun-09 01:31N 01°18' E 103°41'0 0.0
2015-Jun-09 00:33N 01°18' E 103°41'0 0.0
2015-Jun-08 23:32N 01°18' E 103°41'0 0.0
2015-Jun-08 22:33N 01°18' E 103°41'0 0.0
2015-Jun-08 21:32N 01°18' E 103°41'0 0.0
2015-Jun-08 20:32N 01°18' E 103°41'4 3.7
2015-Jun-08 19:30N 01°14' E 103°40'2 2.1
2015-Jun-08 18:33N 01°16' E 103°41'0 0.0
2015-Jun-08 17:33N 01°16' E 103°41'0 0.0
2015-Jun-08 16:31N 01°16' E 103°41'0 0.0
2015-Jun-08 15:32N 01°16' E 103°41'0 0.0
2015-Jun-08 14:33N 01°16' E 103°41'0 0.0
2015-Jun-08 13:33N 01°16' E 103°41'0 0.0
2015-Jun-08 12:33N 01°16' E 103°41'0 0.0
2015-Jun-08 11:27N 01°16' E 103°41'0 0.0
2015-Jun-08 10:30N 01°16' E 103°41'0 0.0
2015-Jun-08 09:30N 01°16' E 103°41'0 0.0
2015-Jun-08 08:33N 01°16' E 103°41'0 0.0
2015-Jun-08 07:21N 01°16' E 103°41'2 0.4
2015-Jun-08 01:29N 01°14' E 103°39'0 0.0
2015-Jun-08 00:26N 01°14' E 103°39'0 0.0
2015-Jun-07 20:12N 01°14' E 103°39'0 0.1
2015-Jun-07 19:24N 01°14' E 103°39'0 0.0
2015-Jun-07 10:08N 01°14' E 103°39'0 0.0
2015-Jun-07 09:25N 01°14' E 103°39'0 0.0
2015-Jun-07 04:32N 01°14' E 103°39'0 0.0
2015-Jun-07 03:26N 01°14' E 103°39'0 0.1
2015-Jun-07 01:25N 01°14' E 103°40'8 7.1
2015-Jun-07 00:18N 01°10' E 103°46'912.4
2015-Jun-06 23:33N 01°14' E 103°55'1312.7
2015-Jun-06 22:33N 01°16' E 104°07'  

Dump ship's entire track history